Pagina principale
METAR-TAF:

METAR-TAF

Aeroporti :

Aeroporto di Portorose

Portorose, Slovenia

latitudine: 45-31N, longitudine: 013-34E, altezza: 95 m

Osservazione

Il bollettino è stato emesso 31 minuti fa, alle 13:30 UTC
Vento 5 kt da nord-ovest
Temperature 20°C
Umidità 78%
Pressione 999 hPa
Visibilità 10 km o più
Poco nuvoloso ad un'altezza di 3000 ft
Nuvoloso ad un'altezza di 6500 ft

METAR: LJPZ 271330Z 32005KT 9999 FEW030 BKN065 20/16 Q0999

Ora: 16:01 (14:01 UTC)

Previsione

Il bollettino è stato emesso 3 ore e 1 minuti fa, alle 11:00 UTC
Previsione valida dal 27 alle 12 UTC al 27 alle 21 UTC
Vento 6 kt da ovest
Visibilità 10 km o più
Poco nuvoloso ad un'altezza di 3000 ft
Probabilità 30% :
Temporaneamente
dal 27 alle 15 UTC al 27 alle 18 UTC
Visibilità: 5000 m
Nubi sparse ad un'altezza di 3000 ft, Cumulonembo.
Nuvoloso ad un'altezza di 5000 ft
temporale, pioggia

TAF: LJPZ 271100Z 2712/2721 28006KT 9999 FEW030 PROB30 TEMPO 2715/2718 5000 TSRA SCT030CB BKN050

Osservazioni e previsioni meteorologiche di più di 4000 aeroporti (messaggi METAR e TAF).

Le stazioni disponibili sono rappresentate dai dischi gialli e rossi sulla carta.

Puntare il mouse per vedere il nome della stazione.

Clicca sopra per visualizzare le osservazioni e previsioni meteorologiche.

Per cambiare la mappa : fare clic sui pulsanti verdi con una croce nera per ingrandire, il pulsante verde con un trattino per diminuire, o sulla freccia verde per le mappe adiacenti.


METAR-TAF: